sensor_id;sensor_type;location;lat;lon;timestamp;P1;durP1;ratioP1;P2;durP2;ratioP2
2570;SDS011;1295;51.130;6.732;2023-03-01T00:01:03;62.60;;;9.53;;
2570;SDS011;1295;51.130;6.732;2023-03-01T00:03:28;62.70;;;8.20;;
2570;SDS011;1295;51.130;6.732;2023-03-01T00:05:54;62.40;;;8.93;;
2570;SDS011;1295;51.130;6.732;2023-03-01T00:08:20;63.47;;;8.60;;
2570;SDS011;1295;51.130;6.732;2023-03-01T00:10:45;67.33;;;9.60;;
2570;SDS011;1295;51.130;6.732;2023-03-01T00:13:11;64.77;;;8.60;;
2570;SDS011;1295;51.130;6.732;2023-03-01T00:15:38;64.47;;;10.33;;
2570;SDS011;1295;51.130;6.732;2023-03-01T00:18:04;61.80;;;8.90;;
2570;SDS011;1295;51.130;6.732;2023-03-01T00:20:30;65.63;;;9.67;;
2570;SDS011;1295;51.130;6.732;2023-03-01T00:22:57;67.40;;;9.03;;
2570;SDS011;1295;51.130;6.732;2023-03-01T00:25:29;65.30;;;9.40;;
2570;SDS011;1295;51.130;6.732;2023-03-01T00:27:56;64.60;;;10.37;;
2570;SDS011;1295;51.130;6.732;2023-03-01T00:30:22;65.60;;;10.57;;
2570;SDS011;1295;51.130;6.732;2023-03-01T00:32:47;64.43;;;9.03;;
2570;SDS011;1295;51.130;6.732;2023-03-01T00:35:13;63.57;;;10.03;;
2570;SDS011;1295;51.130;6.732;2023-03-01T00:37:39;63.30;;;9.50;;
2570;SDS011;1295;51.130;6.732;2023-03-01T00:40:06;70.20;;;8.50;;
2570;SDS011;1295;51.130;6.732;2023-03-01T00:42:33;63.70;;;9.43;;
2570;SDS011;1295;51.130;6.732;2023-03-01T00:44:59;64.97;;;10.13;;
2570;SDS011;1295;51.130;6.732;2023-03-01T00:47:25;66.07;;;9.93;;
2570;SDS011;1295;51.130;6.732;2023-03-01T00:49:51;63.80;;;9.70;;
2570;SDS011;1295;51.130;6.732;2023-03-01T00:52:17;64.03;;;9.00;;
2570;SDS011;1295;51.130;6.732;2023-03-01T00:54:43;64.53;;;11.03;;
2570;SDS011;1295;51.130;6.732;2023-03-01T00:57:09;63.83;;;9.50;;
2570;SDS011;1295;51.130;6.732;2023-03-01T00:59:35;62.10;;;9.20;;
2570;SDS011;1295;51.130;6.732;2023-03-01T01:02:01;64.17;;;9.23;;
2570;SDS011;1295;51.130;6.732;2023-03-01T01:04:26;66.70;;;9.90;;
2570;SDS011;1295;51.130;6.732;2023-03-01T01:06:52;66.60;;;9.87;;
2570;SDS011;1295;51.130;6.732;2023-03-01T01:09:17;65.93;;;10.60;;
2570;SDS011;1295;51.130;6.732;2023-03-01T01:11:45;63.47;;;8.50;;
2570;SDS011;1295;51.130;6.732;2023-03-01T01:14:10;63.90;;;9.70;;
2570;SDS011;1295;51.130;6.732;2023-03-01T01:16:35;64.07;;;9.40;;
2570;SDS011;1295;51.130;6.732;2023-03-01T01:19:01;64.87;;;10.27;;
2570;SDS011;1295;51.130;6.732;2023-03-01T01:21:28;62.77;;;8.73;;
2570;SDS011;1295;51.130;6.732;2023-03-01T01:23:53;67.87;;;9.87;;
2570;SDS011;1295;51.130;6.732;2023-03-01T01:26:22;64.27;;;10.40;;
2570;SDS011;1295;51.130;6.732;2023-03-01T01:28:46;62.90;;;9.40;;
2570;SDS011;1295;51.130;6.732;2023-03-01T01:31:12;63.10;;;9.33;;
2570;SDS011;1295;51.130;6.732;2023-03-01T01:33:37;63.60;;;8.83;;
2570;SDS011;1295;51.130;6.732;2023-03-01T01:36:05;63.50;;;10.00;;
2570;SDS011;1295;51.130;6.732;2023-03-01T01:38:31;66.07;;;10.60;;
2570;SDS011;1295;51.130;6.732;2023-03-01T01:40:57;63.43;;;10.40;;
2570;SDS011;1295;51.130;6.732;2023-03-01T01:43:26;63.37;;;10.17;;
2570;SDS011;1295;51.130;6.732;2023-03-01T01:45:52;63.90;;;9.33;;
2570;SDS011;1295;51.130;6.732;2023-03-01T01:48:18;66.57;;;10.73;;
2570;SDS011;1295;51.130;6.732;2023-03-01T01:50:43;64.20;;;9.87;;
2570;SDS011;1295;51.130;6.732;2023-03-01T01:53:10;68.80;;;10.40;;
2570;SDS011;1295;51.130;6.732;2023-03-01T01:55:35;64.10;;;11.00;;
2570;SDS011;1295;51.130;6.732;2023-03-01T01:58:02;64.27;;;10.47;;
2570;SDS011;1295;51.130;6.732;2023-03-01T02:00:27;63.90;;;9.67;;
2570;SDS011;1295;51.130;6.732;2023-03-01T02:02:55;63.17;;;10.20;;
2570;SDS011;1295;51.130;6.732;2023-03-01T02:05:26;64.00;;;9.60;;
2570;SDS011;1295;51.130;6.732;2023-03-01T02:07:51;66.00;;;9.57;;
2570;SDS011;1295;51.130;6.732;2023-03-01T02:10:17;66.17;;;10.30;;
2570;SDS011;1295;51.130;6.732;2023-03-01T02:12:42;65.57;;;10.33;;
2570;SDS011;1295;51.130;6.732;2023-03-01T02:15:08;64.60;;;9.60;;
2570;SDS011;1295;51.130;6.732;2023-03-01T02:17:34;65.73;;;10.63;;
2570;SDS011;1295;51.130;6.732;2023-03-01T02:22:55;61.90;;;8.97;;
2570;SDS011;1295;51.130;6.732;2023-03-01T02:26:33;64.90;;;10.37;;
2570;SDS011;1295;51.130;6.732;2023-03-01T02:28:29;61.20;;;8.93;;
2570;SDS011;1295;51.130;6.732;2023-03-01T02:30:54;66.50;;;10.67;;
2570;SDS011;1295;51.130;6.732;2023-03-01T02:33:26;64.40;;;9.93;;
2570;SDS011;1295;51.130;6.732;2023-03-01T02:35:52;64.90;;;9.67;;
2570;SDS011;1295;51.130;6.732;2023-03-01T02:38:17;66.10;;;10.07;;
2570;SDS011;1295;51.130;6.732;2023-03-01T02:40:43;65.50;;;10.43;;
2570;SDS011;1295;51.130;6.732;2023-03-01T02:43:09;65.70;;;11.10;;
2570;SDS011;1295;51.130;6.732;2023-03-01T02:45:34;71.03;;;11.77;;
2570;SDS011;1295;51.130;6.732;2023-03-01T02:48:01;62.70;;;9.40;;
2570;SDS011;1295;51.130;6.732;2023-03-01T02:51:03;64.10;;;10.37;;
2570;SDS011;1295;51.130;6.732;2023-03-01T02:53:11;65.10;;;10.20;;
2570;SDS011;1295;51.130;6.732;2023-03-01T02:55:36;65.67;;;10.10;;
2570;SDS011;1295;51.130;6.732;2023-03-01T02:58:02;70.87;;;10.50;;
2570;SDS011;1295;51.130;6.732;2023-03-01T03:00:30;63.63;;;8.77;;
2570;SDS011;1295;51.130;6.732;2023-03-01T03:02:54;65.57;;;11.10;;
2570;SDS011;1295;51.130;6.732;2023-03-01T03:05:21;66.30;;;10.37;;
2570;SDS011;1295;51.130;6.732;2023-03-01T03:07:46;70.57;;;11.10;;
2570;SDS011;1295;51.130;6.732;2023-03-01T03:10:13;66.90;;;9.10;;
2570;SDS011;1295;51.130;6.732;2023-03-01T03:12:37;64.57;;;9.70;;
2570;SDS011;1295;51.130;6.732;2023-03-01T03:15:03;66.90;;;11.73;;
2570;SDS011;1295;51.130;6.732;2023-03-01T03:17:29;64.40;;;10.77;;
2570;SDS011;1295;51.130;6.732;2023-03-01T03:19:55;66.73;;;11.17;;
2570;SDS011;1295;51.130;6.732;2023-03-01T03:22:21;66.20;;;11.30;;
2570;SDS011;1295;51.130;6.732;2023-03-01T03:24:47;64.67;;;10.63;;
2570;SDS011;1295;51.130;6.732;2023-03-01T03:27:13;65.50;;;11.13;;
2570;SDS011;1295;51.130;6.732;2023-03-01T03:29:38;69.20;;;11.60;;
2570;SDS011;1295;51.130;6.732;2023-03-01T03:32:04;64.10;;;9.73;;
2570;SDS011;1295;51.130;6.732;2023-03-01T03:34:30;62.80;;;9.63;;
2570;SDS011;1295;51.130;6.732;2023-03-01T03:36:56;65.00;;;10.27;;
2570;SDS011;1295;51.130;6.732;2023-03-01T03:39:23;65.10;;;10.20;;
2570;SDS011;1295;51.130;6.732;2023-03-01T03:41:48;66.47;;;11.33;;
2570;SDS011;1295;51.130;6.732;2023-03-01T03:44:13;67.77;;;10.50;;
2570;SDS011;1295;51.130;6.732;2023-03-01T03:46:39;69.87;;;10.60;;
2570;SDS011;1295;51.130;6.732;2023-03-01T03:49:05;61.93;;;9.60;;
2570;SDS011;1295;51.130;6.732;2023-03-01T03:51:31;64.50;;;10.10;;
2570;SDS011;1295;51.130;6.732;2023-03-01T03:53:57;65.30;;;10.10;;
2570;SDS011;1295;51.130;6.732;2023-03-01T03:56:23;66.40;;;11.73;;
2570;SDS011;1295;51.130;6.732;2023-03-01T03:58:50;64.30;;;9.80;;
2570;SDS011;1295;51.130;6.732;2023-03-01T04:01:15;69.67;;;11.63;;
2570;SDS011;1295;51.130;6.732;2023-03-01T04:03:41;80.90;;;12.07;;
2570;SDS011;1295;51.130;6.732;2023-03-01T04:06:07;64.20;;;10.70;;
2570;SDS011;1295;51.130;6.732;2023-03-01T04:08:32;66.60;;;11.33;;
2570;SDS011;1295;51.130;6.732;2023-03-01T04:10:59;65.60;;;11.53;;
2570;SDS011;1295;51.130;6.732;2023-03-01T04:13:24;70.57;;;12.17;;
2570;SDS011;1295;51.130;6.732;2023-03-01T04:15:51;66.10;;;12.23;;
2570;SDS011;1295;51.130;6.732;2023-03-01T04:18:16;67.43;;;12.43;;
2570;SDS011;1295;51.130;6.732;2023-03-01T04:20:41;66.13;;;9.77;;
2570;SDS011;1295;51.130;6.732;2023-03-01T04:23:11;69.50;;;10.90;;
2570;SDS011;1295;51.130;6.732;2023-03-01T04:25:37;67.40;;;11.97;;
2570;SDS011;1295;51.130;6.732;2023-03-01T04:28:02;70.87;;;11.40;;
2570;SDS011;1295;51.130;6.732;2023-03-01T04:30:29;61.40;;;10.00;;
2570;SDS011;1295;51.130;6.732;2023-03-01T04:32:55;66.13;;;11.33;;
2570;SDS011;1295;51.130;6.732;2023-03-01T04:35:21;69.90;;;12.27;;
2570;SDS011;1295;51.130;6.732;2023-03-01T04:37:47;67.63;;;12.63;;
2570;SDS011;1295;51.130;6.732;2023-03-01T04:40:13;67.77;;;11.40;;
2570;SDS011;1295;51.130;6.732;2023-03-01T04:42:39;66.90;;;10.87;;
2570;SDS011;1295;51.130;6.732;2023-03-01T04:45:05;79.27;;;13.00;;
2570;SDS011;1295;51.130;6.732;2023-03-01T04:47:32;73.20;;;12.07;;
2570;SDS011;1295;51.130;6.732;2023-03-01T04:49:57;66.77;;;11.60;;
2570;SDS011;1295;51.130;6.732;2023-03-01T04:52:23;64.60;;;10.60;;
2570;SDS011;1295;51.130;6.732;2023-03-01T04:54:49;65.30;;;11.23;;
2570;SDS011;1295;51.130;6.732;2023-03-01T04:57:14;68.13;;;12.13;;
2570;SDS011;1295;51.130;6.732;2023-03-01T04:59:40;70.33;;;11.83;;
2570;SDS011;1295;51.130;6.732;2023-03-01T05:02:06;66.90;;;10.90;;
2570;SDS011;1295;51.130;6.732;2023-03-01T05:04:31;69.67;;;11.63;;
2570;SDS011;1295;51.130;6.732;2023-03-01T05:06:57;67.27;;;11.60;;
2570;SDS011;1295;51.130;6.732;2023-03-01T05:09:23;64.57;;;11.10;;
2570;SDS011;1295;51.130;6.732;2023-03-01T05:11:49;65.43;;;10.97;;
2570;SDS011;1295;51.130;6.732;2023-03-01T05:14:15;69.23;;;12.30;;
2570;SDS011;1295;51.130;6.732;2023-03-01T05:16:40;69.97;;;13.10;;
2570;SDS011;1295;51.130;6.732;2023-03-01T05:19:06;72.03;;;11.87;;
2570;SDS011;1295;51.130;6.732;2023-03-01T05:21:32;70.53;;;13.20;;
2570;SDS011;1295;51.130;6.732;2023-03-01T05:23:57;66.40;;;11.47;;
2570;SDS011;1295;51.130;6.732;2023-03-01T05:26:24;73.87;;;14.67;;
2570;SDS011;1295;51.130;6.732;2023-03-01T05:28:50;70.37;;;12.40;;
2570;SDS011;1295;51.130;6.732;2023-03-01T05:31:15;68.00;;;12.90;;
2570;SDS011;1295;51.130;6.732;2023-03-01T05:33:41;66.50;;;11.60;;
2570;SDS011;1295;51.130;6.732;2023-03-01T05:36:07;67.53;;;12.00;;
2570;SDS011;1295;51.130;6.732;2023-03-01T05:38:34;71.90;;;14.33;;
2570;SDS011;1295;51.130;6.732;2023-03-01T05:40:59;69.27;;;13.17;;
2570;SDS011;1295;51.130;6.732;2023-03-01T05:43:25;68.00;;;12.90;;
2570;SDS011;1295;51.130;6.732;2023-03-01T05:45:51;67.90;;;12.87;;
2570;SDS011;1295;51.130;6.732;2023-03-01T05:48:16;71.93;;;11.97;;
2570;SDS011;1295;51.130;6.732;2023-03-01T05:50:43;70.17;;;13.20;;
2570;SDS011;1295;51.130;6.732;2023-03-01T05:53:11;67.97;;;11.60;;
2570;SDS011;1295;51.130;6.732;2023-03-01T05:55:35;67.37;;;12.93;;
2570;SDS011;1295;51.130;6.732;2023-03-01T05:58:02;69.10;;;12.00;;
2570;SDS011;1295;51.130;6.732;2023-03-01T06:00:27;70.67;;;13.50;;
2570;SDS011;1295;51.130;6.732;2023-03-01T06:02:53;68.00;;;12.40;;
2570;SDS011;1295;51.130;6.732;2023-03-01T06:05:18;69.43;;;13.13;;
2570;SDS011;1295;51.130;6.732;2023-03-01T06:07:43;71.10;;;13.70;;
2570;SDS011;1295;51.130;6.732;2023-03-01T06:10:09;69.13;;;12.73;;
2570;SDS011;1295;51.130;6.732;2023-03-01T06:12:36;73.10;;;12.73;;
2570;SDS011;1295;51.130;6.732;2023-03-01T06:15:03;70.40;;;12.10;;
2570;SDS011;1295;51.130;6.732;2023-03-01T06:17:29;72.30;;;13.33;;
2570;SDS011;1295;51.130;6.732;2023-03-01T06:19:55;67.80;;;12.60;;
2570;SDS011;1295;51.130;6.732;2023-03-01T06:22:20;67.93;;;11.40;;
2570;SDS011;1295;51.130;6.732;2023-03-01T06:24:56;69.30;;;12.97;;
2570;SDS011;1295;51.130;6.732;2023-03-01T06:27:22;71.27;;;13.00;;
2570;SDS011;1295;51.130;6.732;2023-03-01T06:29:48;68.20;;;12.33;;
2570;SDS011;1295;51.130;6.732;2023-03-01T06:32:14;65.93;;;11.93;;
2570;SDS011;1295;51.130;6.732;2023-03-01T06:34:39;71.63;;;13.03;;
2570;SDS011;1295;51.130;6.732;2023-03-01T06:37:06;72.80;;;13.83;;
2570;SDS011;1295;51.130;6.732;2023-03-01T06:39:31;66.87;;;12.80;;
2570;SDS011;1295;51.130;6.732;2023-03-01T06:41:57;69.40;;;12.90;;
2570;SDS011;1295;51.130;6.732;2023-03-01T06:44:22;69.10;;;12.37;;
2570;SDS011;1295;51.130;6.732;2023-03-01T06:46:48;69.80;;;13.03;;
2570;SDS011;1295;51.130;6.732;2023-03-01T06:49:14;69.40;;;13.30;;
2570;SDS011;1295;51.130;6.732;2023-03-01T06:51:40;74.40;;;15.13;;
2570;SDS011;1295;51.130;6.732;2023-03-01T06:54:06;75.17;;;14.77;;
2570;SDS011;1295;51.130;6.732;2023-03-01T06:56:33;69.00;;;12.47;;
2570;SDS011;1295;51.130;6.732;2023-03-01T06:58:59;74.20;;;14.50;;
2570;SDS011;1295;51.130;6.732;2023-03-01T07:01:24;72.00;;;14.80;;
2570;SDS011;1295;51.130;6.732;2023-03-01T07:03:50;72.97;;;14.67;;
2570;SDS011;1295;51.130;6.732;2023-03-01T07:06:16;72.03;;;13.70;;
2570;SDS011;1295;51.130;6.732;2023-03-01T07:08:42;69.33;;;13.93;;
2570;SDS011;1295;51.130;6.732;2023-03-01T07:11:07;69.50;;;13.43;;
2570;SDS011;1295;51.130;6.732;2023-03-01T07:13:33;69.77;;;13.90;;
2570;SDS011;1295;51.130;6.732;2023-03-01T07:15:59;71.27;;;13.57;;
2570;SDS011;1295;51.130;6.732;2023-03-01T07:18:24;70.73;;;13.77;;
2570;SDS011;1295;51.130;6.732;2023-03-01T07:20:50;71.37;;;14.90;;
2570;SDS011;1295;51.130;6.732;2023-03-01T07:23:16;71.00;;;14.37;;
2570;SDS011;1295;51.130;6.732;2023-03-01T07:25:42;72.63;;;15.00;;
2570;SDS011;1295;51.130;6.732;2023-03-01T07:28:08;74.63;;;14.30;;
2570;SDS011;1295;51.130;6.732;2023-03-01T07:30:33;76.90;;;17.60;;
2570;SDS011;1295;51.130;6.732;2023-03-01T07:32:59;85.30;;;20.73;;
2570;SDS011;1295;51.130;6.732;2023-03-01T07:35:25;77.13;;;16.87;;
2570;SDS011;1295;51.130;6.732;2023-03-01T07:37:50;77.13;;;16.07;;
2570;SDS011;1295;51.130;6.732;2023-03-01T07:40:21;73.77;;;15.50;;
2570;SDS011;1295;51.130;6.732;2023-03-01T07:42:47;74.57;;;14.37;;
2570;SDS011;1295;51.130;6.732;2023-03-01T07:45:12;74.37;;;15.27;;
2570;SDS011;1295;51.130;6.732;2023-03-01T07:47:38;77.43;;;15.23;;
2570;SDS011;1295;51.130;6.732;2023-03-01T07:50:04;75.10;;;14.43;;
2570;SDS011;1295;51.130;6.732;2023-03-01T07:52:31;71.77;;;15.77;;
2570;SDS011;1295;51.130;6.732;2023-03-01T07:54:57;69.27;;;12.83;;
2570;SDS011;1295;51.130;6.732;2023-03-01T07:57:23;79.13;;;17.60;;
2570;SDS011;1295;51.130;6.732;2023-03-01T07:59:49;71.60;;;14.73;;
2570;SDS011;1295;51.130;6.732;2023-03-01T08:02:14;82.00;;;17.57;;
2570;SDS011;1295;51.130;6.732;2023-03-01T08:04:41;71.03;;;15.53;;
2570;SDS011;1295;51.130;6.732;2023-03-01T08:07:06;78.33;;;18.83;;
2570;SDS011;1295;51.130;6.732;2023-03-01T08:09:34;82.40;;;19.60;;
2570;SDS011;1295;51.130;6.732;2023-03-01T08:11:57;67.70;;;13.40;;
2570;SDS011;1295;51.130;6.732;2023-03-01T08:14:24;82.90;;;17.53;;
2570;SDS011;1295;51.130;6.732;2023-03-01T08:16:50;69.93;;;12.87;;
2570;SDS011;1295;51.130;6.732;2023-03-01T08:19:16;73.40;;;16.07;;
2570;SDS011;1295;51.130;6.732;2023-03-01T08:21:42;69.53;;;13.60;;
2570;SDS011;1295;51.130;6.732;2023-03-01T08:24:07;75.07;;;14.97;;
2570;SDS011;1295;51.130;6.732;2023-03-01T08:26:33;69.70;;;14.90;;
2570;SDS011;1295;51.130;6.732;2023-03-01T08:29:00;66.80;;;13.70;;
2570;SDS011;1295;51.130;6.732;2023-03-01T08:31:27;71.33;;;15.10;;
2570;SDS011;1295;51.130;6.732;2023-03-01T08:33:52;76.90;;;17.37;;
2570;SDS011;1295;51.130;6.732;2023-03-01T08:36:17;78.93;;;17.83;;
2570;SDS011;1295;51.130;6.732;2023-03-01T08:38:43;69.40;;;14.67;;
2570;SDS011;1295;51.130;6.732;2023-03-01T08:41:08;72.20;;;16.60;;
2570;SDS011;1295;51.130;6.732;2023-03-01T08:43:34;79.60;;;18.20;;
2570;SDS011;1295;51.130;6.732;2023-03-01T08:45:59;76.57;;;15.87;;
2570;SDS011;1295;51.130;6.732;2023-03-01T08:48:27;76.00;;;16.93;;
2570;SDS011;1295;51.130;6.732;2023-03-01T08:50:52;74.17;;;16.73;;
2570;SDS011;1295;51.130;6.732;2023-03-01T08:53:17;79.80;;;18.23;;
2570;SDS011;1295;51.130;6.732;2023-03-01T08:55:43;69.40;;;12.10;;
2570;SDS011;1295;51.130;6.732;2023-03-01T08:58:09;77.33;;;16.17;;
2570;SDS011;1295;51.130;6.732;2023-03-01T09:00:34;73.97;;;12.30;;
2570;SDS011;1295;51.130;6.732;2023-03-01T09:03:00;72.50;;;14.90;;
2570;SDS011;1295;51.130;6.732;2023-03-01T09:05:25;77.30;;;15.97;;
2570;SDS011;1295;51.130;6.732;2023-03-01T09:07:51;72.87;;;13.23;;
2570;SDS011;1295;51.130;6.732;2023-03-01T09:10:27;72.10;;;14.60;;
2570;SDS011;1295;51.130;6.732;2023-03-01T09:12:52;78.37;;;13.30;;
2570;SDS011;1295;51.130;6.732;2023-03-01T09:15:18;71.00;;;14.47;;
2570;SDS011;1295;51.130;6.732;2023-03-01T09:17:44;82.73;;;17.80;;
2570;SDS011;1295;51.130;6.732;2023-03-01T09:20:10;79.63;;;15.03;;
2570;SDS011;1295;51.130;6.732;2023-03-01T09:22:36;77.50;;;17.13;;
2570;SDS011;1295;51.130;6.732;2023-03-01T09:25:01;74.63;;;16.03;;
2570;SDS011;1295;51.130;6.732;2023-03-01T09:27:27;76.30;;;15.63;;
2570;SDS011;1295;51.130;6.732;2023-03-01T09:29:53;74.30;;;14.40;;
2570;SDS011;1295;51.130;6.732;2023-03-01T09:32:19;69.47;;;12.50;;
2570;SDS011;1295;51.130;6.732;2023-03-01T09:34:44;72.63;;;10.60;;
2570;SDS011;1295;51.130;6.732;2023-03-01T09:37:17;71.40;;;13.57;;
2570;SDS011;1295;51.130;6.732;2023-03-01T09:39:43;72.80;;;15.67;;
2570;SDS011;1295;51.130;6.732;2023-03-01T09:42:11;71.23;;;12.70;;
2570;SDS011;1295;51.130;6.732;2023-03-01T09:44:40;69.60;;;11.83;;
2570;SDS011;1295;51.130;6.732;2023-03-01T09:47:17;75.60;;;14.20;;
2570;SDS011;1295;51.130;6.732;2023-03-01T09:49:33;74.97;;;14.67;;
2570;SDS011;1295;51.130;6.732;2023-03-01T09:52:34;70.87;;;12.37;;
2570;SDS011;1295;51.130;6.732;2023-03-01T09:54:59;65.23;;;9.53;;
2570;SDS011;1295;51.130;6.732;2023-03-01T09:57:26;75.80;;;15.90;;
2570;SDS011;1295;51.130;6.732;2023-03-01T10:00:12;79.93;;;18.57;;
2570;SDS011;1295;51.130;6.732;2023-03-01T10:02:57;75.40;;;13.40;;
2570;SDS011;1295;51.130;6.732;2023-03-01T10:08:02;72.67;;;14.20;;
2570;SDS011;1295;51.130;6.732;2023-03-01T10:10:32;76.20;;;14.93;;
2570;SDS011;1295;51.130;6.732;2023-03-01T10:12:55;76.50;;;15.57;;
2570;SDS011;1295;51.130;6.732;2023-03-01T10:15:24;72.47;;;13.90;;
2570;SDS011;1295;51.130;6.732;2023-03-01T10:17:50;70.60;;;14.00;;
2570;SDS011;1295;51.130;6.732;2023-03-01T10:20:18;67.47;;;12.17;;
2570;SDS011;1295;51.130;6.732;2023-03-01T10:22:43;71.90;;;12.90;;
2570;SDS011;1295;51.130;6.732;2023-03-01T10:25:12;69.50;;;14.20;;
2570;SDS011;1295;51.130;6.732;2023-03-01T10:27:38;75.43;;;14.43;;
2570;SDS011;1295;51.130;6.732;2023-03-01T10:30:30;77.17;;;14.87;;
2570;SDS011;1295;51.130;6.732;2023-03-01T10:32:48;67.87;;;11.40;;
2570;SDS011;1295;51.130;6.732;2023-03-01T10:35:19;75.53;;;14.37;;
2570;SDS011;1295;51.130;6.732;2023-03-01T10:37:56;80.40;;;12.33;;
2570;SDS011;1295;51.130;6.732;2023-03-01T10:40:17;70.97;;;13.50;;
2570;SDS011;1295;51.130;6.732;2023-03-01T10:42:46;73.47;;;13.70;;
2570;SDS011;1295;51.130;6.732;2023-03-01T10:45:23;82.10;;;11.83;;
2570;SDS011;1295;51.130;6.732;2023-03-01T10:48:04;69.20;;;12.60;;
2570;SDS011;1295;51.130;6.732;2023-03-01T10:50:30;74.13;;;14.97;;
2570;SDS011;1295;51.130;6.732;2023-03-01T10:52:57;74.27;;;13.17;;
2570;SDS011;1295;51.130;6.732;2023-03-01T10:55:39;71.23;;;14.47;;
2570;SDS011;1295;51.130;6.732;2023-03-01T10:58:06;72.17;;;15.10;;
2570;SDS011;1295;51.130;6.732;2023-03-01T11:00:33;68.10;;;11.40;;
2570;SDS011;1295;51.130;6.732;2023-03-01T11:03:02;69.10;;;12.50;;
2570;SDS011;1295;51.130;6.732;2023-03-01T11:05:27;71.40;;;13.43;;
2570;SDS011;1295;51.130;6.732;2023-03-01T11:07:54;67.60;;;11.83;;
2570;SDS011;1295;51.130;6.732;2023-03-01T11:10:21;75.47;;;14.80;;
2570;SDS011;1295;51.130;6.732;2023-03-01T11:12:46;68.57;;;10.80;;
2570;SDS011;1295;51.130;6.732;2023-03-01T11:17:46;68.90;;;12.60;;
2570;SDS011;1295;51.130;6.732;2023-03-01T11:22:57;69.80;;;12.00;;
2570;SDS011;1295;51.130;6.732;2023-03-01T11:25:25;68.00;;;12.77;;
2570;SDS011;1295;51.130;6.732;2023-03-01T11:27:49;77.33;;;17.97;;
2570;SDS011;1295;51.130;6.732;2023-03-01T11:30:27;68.83;;;13.13;;
2570;SDS011;1295;51.130;6.732;2023-03-01T11:33:04;69.93;;;12.83;;
2570;SDS011;1295;51.130;6.732;2023-03-01T11:35:42;70.13;;;13.50;;
2570;SDS011;1295;51.130;6.732;2023-03-01T11:38:12;74.20;;;15.40;;
2570;SDS011;1295;51.130;6.732;2023-03-01T11:40:43;67.57;;;10.80;;
2570;SDS011;1295;51.130;6.732;2023-03-01T11:43:11;74.90;;;14.47;;
2570;SDS011;1295;51.130;6.732;2023-03-01T11:45:42;71.67;;;11.60;;
2570;SDS011;1295;51.130;6.732;2023-03-01T11:48:27;70.90;;;14.77;;
2570;SDS011;1295;51.130;6.732;2023-03-01T11:50:53;67.57;;;13.70;;
2570;SDS011;1295;51.130;6.732;2023-03-01T11:53:41;74.53;;;14.93;;
2570;SDS011;1295;51.130;6.732;2023-03-01T11:56:20;74.50;;;14.63;;
2570;SDS011;1295;51.130;6.732;2023-03-01T11:58:47;70.20;;;11.90;;
2570;SDS011;1295;51.130;6.732;2023-03-01T12:01:36;68.80;;;10.40;;
2570;SDS011;1295;51.130;6.732;2023-03-01T12:04:12;75.97;;;14.60;;
2570;SDS011;1295;51.130;6.732;2023-03-01T12:06:50;61.67;;;5.43;;
2570;SDS011;1295;51.130;6.732;2023-03-01T12:09:22;69.87;;;8.97;;
2570;SDS011;1295;51.130;6.732;2023-03-01T12:12:58;69.50;;;9.60;;
2570;SDS011;1295;51.130;6.732;2023-03-01T12:14:39;62.10;;;8.60;;
2570;SDS011;1295;51.130;6.732;2023-03-01T12:17:20;65.17;;;8.73;;
2570;SDS011;1295;51.130;6.732;2023-03-01T12:25:34;64.97;;;10.40;;
2570;SDS011;1295;51.130;6.732;2023-03-01T12:28:04;71.13;;;13.13;;
2570;SDS011;1295;51.130;6.732;2023-03-01T12:30:35;74.10;;;9.93;;
2570;SDS011;1295;51.130;6.732;2023-03-01T12:33:02;67.00;;;12.10;;
2570;SDS011;1295;51.130;6.732;2023-03-01T12:35:43;74.77;;;14.30;;
2570;SDS011;1295;51.130;6.732;2023-03-01T12:40:46;71.40;;;12.63;;
2570;SDS011;1295;51.130;6.732;2023-03-01T12:43:16;66.27;;;8.60;;
2570;SDS011;1295;51.130;6.732;2023-03-01T12:51:14;72.27;;;13.30;;
2570;SDS011;1295;51.130;6.732;2023-03-01T12:53:41;70.63;;;13.20;;
2570;SDS011;1295;51.130;6.732;2023-03-01T12:56:08;69.20;;;12.10;;
2570;SDS011;1295;51.130;6.732;2023-03-01T12:58:33;64.03;;;7.63;;
2570;SDS011;1295;51.130;6.732;2023-03-01T13:01:22;69.20;;;11.97;;
2570;SDS011;1295;51.130;6.732;2023-03-01T13:07:04;68.87;;;11.23;;
2570;SDS011;1295;51.130;6.732;2023-03-01T13:09:36;68.50;;;8.47;;
2570;SDS011;1295;51.130;6.732;2023-03-01T13:12:02;67.87;;;11.80;;
2570;SDS011;1295;51.130;6.732;2023-03-01T13:14:34;69.10;;;11.90;;
2570;SDS011;1295;51.130;6.732;2023-03-01T13:16:59;67.03;;;11.93;;
2570;SDS011;1295;51.130;6.732;2023-03-01T13:19:26;67.00;;;11.50;;
2570;SDS011;1295;51.130;6.732;2023-03-01T13:21:51;67.47;;;10.53;;
2570;SDS011;1295;51.130;6.732;2023-03-01T13:24:26;64.87;;;6.80;;
2570;SDS011;1295;51.130;6.732;2023-03-01T13:29:46;66.10;;;9.30;;
2570;SDS011;1295;51.130;6.732;2023-03-01T13:34:49;63.90;;;9.10;;
2570;SDS011;1295;51.130;6.732;2023-03-01T13:37:18;65.90;;;8.90;;
2570;SDS011;1295;51.130;6.732;2023-03-01T13:39:46;63.80;;;9.03;;
2570;SDS011;1295;51.130;6.732;2023-03-01T13:44:49;68.10;;;10.83;;
2570;SDS011;1295;51.130;6.732;2023-03-01T13:47:16;68.63;;;7.70;;
2570;SDS011;1295;51.130;6.732;2023-03-01T13:49:43;67.67;;;7.93;;
2570;SDS011;1295;51.130;6.732;2023-03-01T13:52:22;61.37;;;7.20;;
2570;SDS011;1295;51.130;6.732;2023-03-01T13:54:45;71.60;;;11.33;;
2570;SDS011;1295;51.130;6.732;2023-03-01T13:57:12;64.60;;;8.90;;
2570;SDS011;1295;51.130;6.732;2023-03-01T13:59:36;64.10;;;10.10;;
2570;SDS011;1295;51.130;6.732;2023-03-01T14:02:02;66.83;;;10.40;;
2570;SDS011;1295;51.130;6.732;2023-03-01T14:04:28;63.97;;;9.17;;
2570;SDS011;1295;51.130;6.732;2023-03-01T14:09:32;67.07;;;11.60;;
2570;SDS011;1295;51.130;6.732;2023-03-01T14:12:06;64.40;;;8.90;;
2570;SDS011;1295;51.130;6.732;2023-03-01T14:14:46;63.03;;;8.13;;
2570;SDS011;1295;51.130;6.732;2023-03-01T14:19:58;66.33;;;9.77;;
2570;SDS011;1295;51.130;6.732;2023-03-01T14:22:25;66.87;;;8.93;;
2570;SDS011;1295;51.130;6.732;2023-03-01T14:24:51;61.10;;;8.60;;
2570;SDS011;1295;51.130;6.732;2023-03-01T14:27:16;61.87;;;8.43;;
2570;SDS011;1295;51.130;6.732;2023-03-01T14:29:42;62.40;;;7.30;;
2570;SDS011;1295;51.130;6.732;2023-03-01T14:32:09;62.90;;;9.60;;
2570;SDS011;1295;51.130;6.732;2023-03-01T14:34:38;74.93;;;11.13;;
2570;SDS011;1295;51.130;6.732;2023-03-01T14:39:35;61.70;;;5.13;;
2570;SDS011;1295;51.130;6.732;2023-03-01T14:42:00;59.40;;;5.40;;
2570;SDS011;1295;51.130;6.732;2023-03-01T14:44:26;66.03;;;7.93;;
2570;SDS011;1295;51.130;6.732;2023-03-01T14:46:53;66.87;;;11.70;;
2570;SDS011;1295;51.130;6.732;2023-03-01T14:49:20;67.10;;;12.70;;
2570;SDS011;1295;51.130;6.732;2023-03-01T14:51:51;68.73;;;8.40;;
2570;SDS011;1295;51.130;6.732;2023-03-01T14:54:20;69.27;;;10.80;;
2570;SDS011;1295;51.130;6.732;2023-03-01T14:56:53;68.73;;;10.87;;
2570;SDS011;1295;51.130;6.732;2023-03-01T14:59:22;67.57;;;8.13;;
2570;SDS011;1295;51.130;6.732;2023-03-01T15:01:48;65.83;;;7.87;;
2570;SDS011;1295;51.130;6.732;2023-03-01T15:04:13;62.77;;;8.13;;
2570;SDS011;1295;51.130;6.732;2023-03-01T15:06:39;60.50;;;6.20;;
2570;SDS011;1295;51.130;6.732;2023-03-01T15:09:04;66.10;;;9.40;;
2570;SDS011;1295;51.130;6.732;2023-03-01T15:11:31;60.50;;;5.40;;
2570;SDS011;1295;51.130;6.732;2023-03-01T15:13:56;64.20;;;9.50;;
2570;SDS011;1295;51.130;6.732;2023-03-01T15:16:23;64.33;;;7.50;;
2570;SDS011;1295;51.130;6.732;2023-03-01T15:18:50;65.93;;;9.00;;
2570;SDS011;1295;51.130;6.732;2023-03-01T15:21:15;65.47;;;10.97;;
2570;SDS011;1295;51.130;6.732;2023-03-01T15:23:40;76.60;;;11.60;;
2570;SDS011;1295;51.130;6.732;2023-03-01T15:26:16;65.77;;;9.83;;
2570;SDS011;1295;51.130;6.732;2023-03-01T15:28:34;69.50;;;11.00;;
2570;SDS011;1295;51.130;6.732;2023-03-01T15:31:05;64.07;;;8.70;;
2570;SDS011;1295;51.130;6.732;2023-03-01T15:33:32;65.30;;;11.23;;
2570;SDS011;1295;51.130;6.732;2023-03-01T15:35:56;64.13;;;8.00;;